sensor_id;sensor_type;location;lat;lon;timestamp;pressure;altitude;pressure_sealevel;temperature;humidity
71966;BME280;59836;52.132;5.442;2022-10-16T00:02:22;101001.13;;;11.78;94.03
71966;BME280;59836;52.132;5.442;2022-10-16T00:04:52;100994.59;;;11.79;93.67
71966;BME280;59836;52.132;5.442;2022-10-16T00:07:38;100997.84;;;11.81;93.77
71966;BME280;59836;52.132;5.442;2022-10-16T00:10:05;100994.31;;;11.81;94.04
71966;BME280;59836;52.132;5.442;2022-10-16T00:12:55;100990.25;;;11.84;93.93
71966;BME280;59836;52.132;5.442;2022-10-16T00:15:25;100999.47;;;11.82;93.66
71966;BME280;59836;52.132;5.442;2022-10-16T00:18:03;101002.19;;;11.82;93.52
71966;BME280;59836;52.132;5.442;2022-10-16T00:20:30;101005.47;;;11.79;93.56
71966;BME280;59836;52.132;5.442;2022-10-16T00:22:59;100996.22;;;11.80;93.79
71966;BME280;59836;52.132;5.442;2022-10-16T00:25:29;101008.19;;;11.79;93.69
71966;BME280;59836;52.132;5.442;2022-10-16T00:28:00;101001.66;;;11.80;93.40
71966;BME280;59836;52.132;5.442;2022-10-16T00:30:43;101003.81;;;11.78;93.50
71966;BME280;59836;52.132;5.442;2022-10-16T00:33:26;100996.22;;;11.80;92.97
71966;BME280;59836;52.132;5.442;2022-10-16T00:35:53;100997.84;;;11.81;93.27
71966;BME280;59836;52.132;5.442;2022-10-16T00:38:39;100996.75;;;11.82;93.38
71966;BME280;59836;52.132;5.442;2022-10-16T00:41:06;100996.75;;;11.82;93.64
71966;BME280;59836;52.132;5.442;2022-10-16T00:46:41;100990.50;;;11.82;93.86
71966;BME280;59836;52.132;5.442;2022-10-16T00:49:19;100992.66;;;11.85;93.89
71966;BME280;59836;52.132;5.442;2022-10-16T00:51:48;100994.59;;;11.85;93.55
71966;BME280;59836;52.132;5.442;2022-10-16T00:54:40;100998.94;;;11.86;93.54
71966;BME280;59836;52.132;5.442;2022-10-16T00:57:07;100996.75;;;11.88;93.62
71966;BME280;59836;52.132;5.442;2022-10-16T00:59:40;100994.56;;;11.90;93.55
71966;BME280;59836;52.132;5.442;2022-10-16T01:02:13;101004.34;;;11.91;93.63
71966;BME280;59836;52.132;5.442;2022-10-16T01:04:58;100997.84;;;11.92;93.23
71966;BME280;59836;52.132;5.442;2022-10-16T01:10:31;101014.38;;;11.95;93.46
71966;BME280;59836;52.132;5.442;2022-10-16T01:13:27;101008.69;;;11.97;93.47
71966;BME280;59836;52.132;5.442;2022-10-16T01:18:43;101012.22;;;12.03;93.45
71966;BME280;59836;52.132;5.442;2022-10-16T01:21:38;101013.06;;;12.03;93.83
71966;BME280;59836;52.132;5.442;2022-10-16T01:24:44;101007.06;;;12.06;93.88
71966;BME280;59836;52.132;5.442;2022-10-16T01:27:36;101005.69;;;12.09;93.98
71966;BME280;59836;52.132;5.442;2022-10-16T01:30:38;101001.63;;;12.12;94.23
71966;BME280;59836;52.132;5.442;2022-10-16T01:33:32;101003.25;;;12.13;93.85
71966;BME280;59836;52.132;5.442;2022-10-16T01:36:18;101014.94;;;12.13;94.27
71966;BME280;59836;52.132;5.442;2022-10-16T01:38:49;101004.06;;;12.13;93.85
71966;BME280;59836;52.132;5.442;2022-10-16T01:41:38;101005.44;;;12.16;93.95
71966;BME280;59836;52.132;5.442;2022-10-16T01:44:14;101008.69;;;12.18;94.16
71966;BME280;59836;52.132;5.442;2022-10-16T01:46:52;101003.75;;;12.20;93.68
71966;BME280;59836;52.132;5.442;2022-10-16T01:49:21;100992.88;;;12.20;93.50
71966;BME280;59836;52.132;5.442;2022-10-16T01:51:56;101002.94;;;12.19;93.69
71966;BME280;59836;52.132;5.442;2022-10-16T01:55:03;100991.53;;;12.22;93.32
71966;BME280;59836;52.132;5.442;2022-10-16T01:57:34;100994.78;;;12.24;93.12
71966;BME280;59836;52.132;5.442;2022-10-16T02:00:14;100990.97;;;12.25;93.87
71966;BME280;59836;52.132;5.442;2022-10-16T02:02:47;100991.78;;;12.26;93.46
71966;BME280;59836;52.132;5.442;2022-10-16T02:05:22;100995.56;;;12.25;93.96
71966;BME280;59836;52.132;5.442;2022-10-16T02:08:10;100989.34;;;12.24;94.27
71966;BME280;59836;52.132;5.442;2022-10-16T02:10:37;100993.16;;;12.23;93.87
71966;BME280;59836;52.132;5.442;2022-10-16T02:14:06;100993.94;;;12.24;93.95
71966;BME280;59836;52.132;5.442;2022-10-16T02:16:18;100994.78;;;12.24;93.87
71966;BME280;59836;52.132;5.442;2022-10-16T02:18:44;100997.22;;;12.26;94.39
71966;BME280;59836;52.132;5.442;2022-10-16T02:21:26;100992.31;;;12.23;94.47
71966;BME280;59836;52.132;5.442;2022-10-16T02:24:04;100995.34;;;12.21;94.21
71966;BME280;59836;52.132;5.442;2022-10-16T02:26:45;101005.38;;;12.21;94.32
71966;BME280;59836;52.132;5.442;2022-10-16T02:29:17;101013.28;;;12.22;93.72
71966;BME280;59836;52.132;5.442;2022-10-16T02:31:47;101009.47;;;12.23;93.67
71966;BME280;59836;52.132;5.442;2022-10-16T02:34:18;101002.09;;;12.24;93.94
71966;BME280;59836;52.132;5.442;2022-10-16T02:36:56;100993.94;;;12.24;93.85
71966;BME280;59836;52.132;5.442;2022-10-16T02:39:29;101001.03;;;12.25;93.54
71966;BME280;59836;52.132;5.442;2022-10-16T02:42:17;101003.50;;;12.21;93.70
71966;BME280;59836;52.132;5.442;2022-10-16T02:44:44;101017.88;;;12.22;93.52
71966;BME280;59836;52.132;5.442;2022-10-16T02:47:11;101013.84;;;12.19;93.81
71966;BME280;59836;52.132;5.442;2022-10-16T02:49:39;101014.13;;;12.18;93.99
71966;BME280;59836;52.132;5.442;2022-10-16T02:52:06;101017.38;;;12.15;93.74
71966;BME280;59836;52.132;5.442;2022-10-16T02:54:45;101022.00;;;12.14;93.71
71966;BME280;59836;52.132;5.442;2022-10-16T02:57:19;101022.81;;;12.15;93.48
71966;BME280;59836;52.132;5.442;2022-10-16T02:59:45;101025.56;;;12.15;93.80
71966;BME280;59836;52.132;5.442;2022-10-16T03:02:12;101021.19;;;12.14;93.86
71966;BME280;59836;52.132;5.442;2022-10-16T03:04:38;101022.56;;;12.11;93.56
71966;BME280;59836;52.132;5.442;2022-10-16T03:07:09;101027.72;;;12.13;93.44
71966;BME280;59836;52.132;5.442;2022-10-16T03:09:35;101033.72;;;12.15;93.79
71966;BME280;59836;52.132;5.442;2022-10-16T03:12:18;101028.25;;;12.15;93.59
71966;BME280;59836;52.132;5.442;2022-10-16T03:14:53;101017.94;;;12.17;93.72
71966;BME280;59836;52.132;5.442;2022-10-16T03:17:36;101005.97;;;12.18;93.27
71966;BME280;59836;52.132;5.442;2022-10-16T03:20:03;101009.78;;;12.17;94.01
71966;BME280;59836;52.132;5.442;2022-10-16T03:22:30;101016.31;;;12.16;93.77
71966;BME280;59836;52.132;5.442;2022-10-16T03:25:04;101010.88;;;12.16;93.55
71966;BME280;59836;52.132;5.442;2022-10-16T03:27:31;101022.81;;;12.15;93.42
71966;BME280;59836;52.132;5.442;2022-10-16T03:30:24;101023.91;;;12.14;93.77
71966;BME280;59836;52.132;5.442;2022-10-16T03:32:50;101019.56;;;12.13;93.85
71966;BME280;59836;52.132;5.442;2022-10-16T03:35:21;101029.63;;;12.12;94.13
71966;BME280;59836;52.132;5.442;2022-10-16T03:37:48;101031.00;;;12.09;93.88
71966;BME280;59836;52.132;5.442;2022-10-16T03:40:15;101031.25;;;12.08;94.01
71966;BME280;59836;52.132;5.442;2022-10-16T03:42:43;101034.81;;;12.08;94.12
71966;BME280;59836;52.132;5.442;2022-10-16T03:45:10;101033.72;;;12.09;93.88
71966;BME280;59836;52.132;5.442;2022-10-16T03:47:42;101036.44;;;12.09;93.93
71966;BME280;59836;52.132;5.442;2022-10-16T03:50:09;101042.41;;;12.06;94.03
71966;BME280;59836;52.132;5.442;2022-10-16T03:52:37;101042.97;;;12.03;94.02
71966;BME280;59836;52.132;5.442;2022-10-16T03:58:44;101042.94;;;11.98;93.84
71966;BME280;59836;52.132;5.442;2022-10-16T04:01:28;101045.13;;;11.96;94.04
71966;BME280;59836;52.132;5.442;2022-10-16T04:04:23;101041.56;;;11.95;94.01
71966;BME280;59836;52.132;5.442;2022-10-16T04:07:01;101048.09;;;11.94;94.30
71966;BME280;59836;52.132;5.442;2022-10-16T04:09:29;101051.66;;;11.95;94.13
71966;BME280;59836;52.132;5.442;2022-10-16T04:11:58;101055.44;;;11.94;94.58
71966;BME280;59836;52.132;5.442;2022-10-16T04:14:25;101060.88;;;11.94;94.39
71966;BME280;59836;52.132;5.442;2022-10-16T04:16:52;101061.69;;;11.94;93.90
71966;BME280;59836;52.132;5.442;2022-10-16T04:19:24;101068.50;;;11.92;93.87
71966;BME280;59836;52.132;5.442;2022-10-16T04:21:50;101069.59;;;11.91;94.11
71966;BME280;59836;52.132;5.442;2022-10-16T04:24:17;101078.81;;;11.90;94.37
71966;BME280;59836;52.132;5.442;2022-10-16T04:26:45;101081.53;;;11.90;94.05
71966;BME280;59836;52.132;5.442;2022-10-16T04:29:11;101070.94;;;11.88;94.23
71966;BME280;59836;52.132;5.442;2022-10-16T04:31:39;101080.16;;;11.87;94.23
71966;BME280;59836;52.132;5.442;2022-10-16T04:34:05;101080.47;;;11.86;94.07
71966;BME280;59836;52.132;5.442;2022-10-16T04:36:38;101088.31;;;11.87;94.62
71966;BME280;59836;52.132;5.442;2022-10-16T04:39:05;101085.91;;;11.86;94.22
71966;BME280;59836;52.132;5.442;2022-10-16T04:41:31;101091.31;;;11.86;94.10
71966;BME280;59836;52.132;5.442;2022-10-16T04:43:57;101098.09;;;11.88;93.92
71966;BME280;59836;52.132;5.442;2022-10-16T04:46:24;101100.81;;;11.88;94.04
71966;BME280;59836;52.132;5.442;2022-10-16T04:48:58;101100.56;;;11.90;94.08
71966;BME280;59836;52.132;5.442;2022-10-16T04:51:24;101096.22;;;11.89;94.15
71966;BME280;59836;52.132;5.442;2022-10-16T04:53:52;101110.34;;;11.91;94.03
71966;BME280;59836;52.132;5.442;2022-10-16T04:56:18;101113.63;;;11.93;93.89
71966;BME280;59836;52.132;5.442;2022-10-16T04:58:45;101108.97;;;11.93;93.86
71966;BME280;59836;52.132;5.442;2022-10-16T05:01:15;101115.25;;;11.94;94.04
71966;BME280;59836;52.132;5.442;2022-10-16T05:03:53;101124.50;;;11.93;94.31
71966;BME280;59836;52.132;5.442;2022-10-16T05:06:26;101124.50;;;11.93;93.93
71966;BME280;59836;52.132;5.442;2022-10-16T05:08:53;101115.50;;;11.92;93.97
71966;BME280;59836;52.132;5.442;2022-10-16T05:11:27;101126.66;;;11.91;94.11
71966;BME280;59836;52.132;5.442;2022-10-16T05:13:54;101129.63;;;11.89;94.11
71966;BME280;59836;52.132;5.442;2022-10-16T05:16:23;101126.13;;;11.89;93.78
71966;BME280;59836;52.132;5.442;2022-10-16T05:18:51;101134.53;;;11.87;93.84
71966;BME280;59836;52.132;5.442;2022-10-16T05:21:30;101144.06;;;11.85;94.08
71966;BME280;59836;52.132;5.442;2022-10-16T05:23:57;101142.41;;;11.84;93.99
71966;BME280;59836;52.132;5.442;2022-10-16T05:26:32;101150.81;;;11.82;93.81
71966;BME280;59836;52.132;5.442;2022-10-16T05:29:01;101150.56;;;11.78;93.93
71966;BME280;59836;52.132;5.442;2022-10-16T05:31:33;101150.56;;;11.78;93.76
71966;BME280;59836;52.132;5.442;2022-10-16T05:34:05;101154.09;;;11.79;94.08
71966;BME280;59836;52.132;5.442;2022-10-16T05:36:31;101154.38;;;11.77;94.24
71966;BME280;59836;52.132;5.442;2022-10-16T05:39:14;101163.59;;;11.76;94.17
71966;BME280;59836;52.132;5.442;2022-10-16T05:42:14;101174.47;;;11.76;93.92
71966;BME280;59836;52.132;5.442;2022-10-16T05:44:43;101179.91;;;11.76;94.20
71966;BME280;59836;52.132;5.442;2022-10-16T05:47:41;101185.59;;;11.75;94.12
71966;BME280;59836;52.132;5.442;2022-10-16T05:50:08;101178.00;;;11.77;94.51
71966;BME280;59836;52.132;5.442;2022-10-16T05:52:35;101190.25;;;11.79;94.25
71966;BME280;59836;52.132;5.442;2022-10-16T05:55:10;101195.69;;;11.79;94.30
71966;BME280;59836;52.132;5.442;2022-10-16T05:57:38;101206.56;;;11.79;94.60
71966;BME280;59836;52.132;5.442;2022-10-16T06:00:06;101208.19;;;11.80;94.76
71966;BME280;59836;52.132;5.442;2022-10-16T06:02:42;101209.53;;;11.83;94.60
71966;BME280;59836;52.132;5.442;2022-10-16T06:05:08;101204.63;;;11.85;94.76
71966;BME280;59836;52.132;5.442;2022-10-16T06:07:51;101208.19;;;11.86;94.55
71966;BME280;59836;52.132;5.442;2022-10-16T06:10:33;101216.34;;;11.91;94.70
71966;BME280;59836;52.132;5.442;2022-10-16T06:13:14;101213.63;;;11.91;94.73
71966;BME280;59836;52.132;5.442;2022-10-16T06:15:42;101223.13;;;11.93;94.74
71966;BME280;59836;52.132;5.442;2022-10-16T06:18:09;101220.16;;;11.95;94.62
71966;BME280;59836;52.132;5.442;2022-10-16T06:20:44;101227.25;;;11.96;94.75
71966;BME280;59836;52.132;5.442;2022-10-16T06:23:10;101235.09;;;11.98;94.85
71966;BME280;59836;52.132;5.442;2022-10-16T06:25:37;101237.56;;;11.99;94.74
71966;BME280;59836;52.132;5.442;2022-10-16T06:28:14;101248.19;;;12.01;95.11
71966;BME280;59836;52.132;5.442;2022-10-16T06:30:47;101249.03;;;12.01;95.07
71966;BME280;59836;52.132;5.442;2022-10-16T06:33:19;101247.09;;;12.02;95.14
71966;BME280;59836;52.132;5.442;2022-10-16T06:35:46;101254.19;;;12.03;94.86
71966;BME280;59836;52.132;5.442;2022-10-16T06:38:14;101244.13;;;12.03;94.85
71966;BME280;59836;52.132;5.442;2022-10-16T06:40:41;101258.00;;;12.07;94.74
71966;BME280;59836;52.132;5.442;2022-10-16T06:43:13;101250.66;;;12.07;95.05
71966;BME280;59836;52.132;5.442;2022-10-16T06:45:40;101263.19;;;12.08;94.82
71966;BME280;59836;52.132;5.442;2022-10-16T06:48:14;101272.13;;;12.09;94.66
71966;BME280;59836;52.132;5.442;2022-10-16T06:50:40;101273.50;;;12.12;95.21
71966;BME280;59836;52.132;5.442;2022-10-16T06:53:07;101278.13;;;12.11;94.68
71966;BME280;59836;52.132;5.442;2022-10-16T06:55:33;101289.81;;;12.12;94.72
71966;BME280;59836;52.132;5.442;2022-10-16T06:58:22;101284.94;;;12.14;94.86
71966;BME280;59836;52.132;5.442;2022-10-16T07:01:16;101289.28;;;12.15;94.58
71966;BME280;59836;52.132;5.442;2022-10-16T07:03:44;101280.84;;;12.16;94.68
71966;BME280;59836;52.132;5.442;2022-10-16T07:06:14;101287.13;;;12.17;94.89
71966;BME280;59836;52.132;5.442;2022-10-16T07:08:48;101275.97;;;12.18;94.43
71966;BME280;59836;52.132;5.442;2022-10-16T07:11:24;101281.13;;;12.20;94.94
71966;BME280;59836;52.132;5.442;2022-10-16T07:14:22;101289.00;;;12.21;95.01
71966;BME280;59836;52.132;5.442;2022-10-16T07:16:49;101294.72;;;12.25;94.48
71966;BME280;59836;52.132;5.442;2022-10-16T07:19:15;101301.78;;;12.26;94.84
71966;BME280;59836;52.132;5.442;2022-10-16T07:21:45;101307.78;;;12.28;94.49
71966;BME280;59836;52.132;5.442;2022-10-16T07:24:16;101301.25;;;12.29;94.86
71966;BME280;59836;52.132;5.442;2022-10-16T07:26:46;101309.97;;;12.31;94.54
71966;BME280;59836;52.132;5.442;2022-10-16T07:29:21;101317.03;;;12.32;94.45
71966;BME280;59836;52.132;5.442;2022-10-16T07:31:48;101314.84;;;12.34;94.32
71966;BME280;59836;52.132;5.442;2022-10-16T07:34:42;101318.97;;;12.37;94.37
71966;BME280;59836;52.132;5.442;2022-10-16T07:37:24;101335.00;;;12.38;94.20
71966;BME280;59836;52.132;5.442;2022-10-16T07:39:51;101335.81;;;12.39;94.24
71966;BME280;59836;52.132;5.442;2022-10-16T07:42:18;101338.00;;;12.42;94.18
71966;BME280;59836;52.132;5.442;2022-10-16T07:44:44;101345.09;;;12.43;93.95
71966;BME280;59836;52.132;5.442;2022-10-16T07:47:11;101348.06;;;12.47;93.69
71966;BME280;59836;52.132;5.442;2022-10-16T07:49:42;101360.31;;;12.49;93.97
71966;BME280;59836;52.132;5.442;2022-10-16T07:52:09;101366.84;;;12.48;93.82
71966;BME280;59836;52.132;5.442;2022-10-16T07:54:35;101375.28;;;12.47;93.43
71966;BME280;59836;52.132;5.442;2022-10-16T07:57:12;101380.47;;;12.48;93.78
71966;BME280;59836;52.132;5.442;2022-10-16T07:59:56;101387.53;;;12.49;94.25
71966;BME280;59836;52.132;5.442;2022-10-16T08:02:32;101383.19;;;12.53;94.37
71966;BME280;59836;52.132;5.442;2022-10-16T08:04:59;101392.16;;;12.59;94.29
71966;BME280;59836;52.132;5.442;2022-10-16T08:07:25;101390.00;;;12.66;94.17
71966;BME280;59836;52.132;5.442;2022-10-16T08:09:52;101394.34;;;12.73;94.28
71966;BME280;59836;52.132;5.442;2022-10-16T08:12:19;101379.91;;;12.72;94.18
71966;BME280;59836;52.132;5.442;2022-10-16T08:14:45;101392.19;;;12.80;93.95
71966;BME280;59836;52.132;5.442;2022-10-16T08:17:14;101410.16;;;12.91;93.66
71966;BME280;59836;52.132;5.442;2022-10-16T08:19:48;101402.81;;;12.97;93.70
71966;BME280;59836;52.132;5.442;2022-10-16T08:22:20;101410.44;;;13.05;93.50
71966;BME280;59836;52.132;5.442;2022-10-16T08:25:15;101405.81;;;13.16;93.02
71966;BME280;59836;52.132;5.442;2022-10-16T08:27:49;101408.25;;;13.18;92.27
71966;BME280;59836;52.132;5.442;2022-10-16T08:30:21;101412.88;;;13.27;92.79
71966;BME280;59836;52.132;5.442;2022-10-16T08:32:48;101409.03;;;13.39;92.70
71966;BME280;59836;52.132;5.442;2022-10-16T08:35:31;101421.06;;;13.48;92.24
71966;BME280;59836;52.132;5.442;2022-10-16T08:38:17;101418.31;;;13.48;92.02
71966;BME280;59836;52.132;5.442;2022-10-16T08:48:24;101439.75;;;13.96;91.07
71966;BME280;59836;52.132;5.442;2022-10-16T08:51:23;101444.91;;;14.08;90.59
71966;BME280;59836;52.132;5.442;2022-10-16T08:54:15;101447.34;;;14.10;89.78
71966;BME280;59836;52.132;5.442;2022-10-16T08:57:08;101464.00;;;14.08;89.67
71966;BME280;59836;52.132;5.442;2022-10-16T08:59:58;101457.97;;;14.11;90.60
71966;BME280;59836;52.132;5.442;2022-10-16T09:02:32;101460.72;;;14.11;89.68
71966;BME280;59836;52.132;5.442;2022-10-16T09:14:18;101456.31;;;14.15;89.72
71966;BME280;59836;52.132;5.442;2022-10-16T09:16:56;101476.50;;;14.20;90.41
71966;BME280;59836;52.132;5.442;2022-10-16T09:22:47;101486.34;;;14.15;89.39
71966;BME280;59836;52.132;5.442;2022-10-16T09:25:21;101484.69;;;14.20;89.47
71966;BME280;59836;52.132;5.442;2022-10-16T09:27:54;101495.06;;;14.17;90.13
71966;BME280;59836;52.132;5.442;2022-10-16T09:30:38;101497.25;;;14.15;89.71
71966;BME280;59836;52.132;5.442;2022-10-16T09:33:06;101487.41;;;14.20;90.60
71966;BME280;59836;52.132;5.442;2022-10-16T09:35:39;101496.69;;;14.19;90.83
71966;BME280;59836;52.132;5.442;2022-10-16T09:38:06;101504.34;;;14.16;90.66
71966;BME280;59836;52.132;5.442;2022-10-16T09:44:28;101504.31;;;14.22;90.55
71966;BME280;59836;52.132;5.442;2022-10-16T09:47:25;101502.94;;;14.24;90.67
71966;BME280;59836;52.132;5.442;2022-10-16T09:50:01;101505.09;;;14.27;90.44
71966;BME280;59836;52.132;5.442;2022-10-16T09:52:47;101509.72;;;14.32;90.64
71966;BME280;59836;52.132;5.442;2022-10-16T09:55:27;101518.72;;;14.32;90.65
71966;BME280;59836;52.132;5.442;2022-10-16T09:57:54;101523.66;;;14.30;90.54
71966;BME280;59836;52.132;5.442;2022-10-16T10:00:22;101517.94;;;14.27;90.26
71966;BME280;59836;52.132;5.442;2022-10-16T10:02:50;101519.84;;;14.26;90.37
71966;BME280;59836;52.132;5.442;2022-10-16T10:05:25;101526.94;;;14.27;90.15
71966;BME280;59836;52.132;5.442;2022-10-16T10:07:58;101524.19;;;14.32;89.02
71966;BME280;59836;52.132;5.442;2022-10-16T10:10:44;101528.53;;;14.39;89.61
71966;BME280;59836;52.132;5.442;2022-10-16T10:13:24;101530.72;;;14.42;88.95
71966;BME280;59836;52.132;5.442;2022-10-16T10:16:00;101522.78;;;14.45;89.77
71966;BME280;59836;52.132;5.442;2022-10-16T10:19:02;101523.28;;;14.53;88.78
71966;BME280;59836;52.132;5.442;2022-10-16T10:21:32;101521.59;;;14.62;88.10
71966;BME280;59836;52.132;5.442;2022-10-16T10:24:02;101535.78;;;14.64;88.84
71966;BME280;59836;52.132;5.442;2022-10-16T10:26:30;101536.88;;;14.63;88.71
71966;BME280;59836;52.132;5.442;2022-10-16T10:29:28;101541.00;;;14.60;88.01
71966;BME280;59836;52.132;5.442;2022-10-16T10:32:02;101545.38;;;14.61;87.74
71966;BME280;59836;52.132;5.442;2022-10-16T10:38:27;101552.19;;;14.69;87.35
71966;BME280;59836;52.132;5.442;2022-10-16T10:46:35;101550.50;;;14.79;87.71
71966;BME280;59836;52.132;5.442;2022-10-16T10:55:40;101560.88;;;14.76;86.29
71966;BME280;59836;52.132;5.442;2022-10-16T11:01:29;101570.19;;;14.75;86.69
71966;BME280;59836;52.132;5.442;2022-10-16T11:04:23;101558.72;;;14.73;87.28
71966;BME280;59836;52.132;5.442;2022-10-16T11:06:58;101568.31;;;14.71;86.45
71966;BME280;59836;52.132;5.442;2022-10-16T11:09:47;101587.66;;;14.64;85.94
71966;BME280;59836;52.132;5.442;2022-10-16T11:12:30;101586.31;;;14.61;85.79
71966;BME280;59836;52.132;5.442;2022-10-16T11:18:04;101577.63;;;14.54;86.71
71966;BME280;59836;52.132;5.442;2022-10-16T11:20:34;101593.19;;;14.49;86.17
71966;BME280;59836;52.132;5.442;2022-10-16T11:23:21;101594.56;;;14.46;85.70
71966;BME280;59836;52.132;5.442;2022-10-16T11:25:57;101601.38;;;14.43;86.26
71966;BME280;59836;52.132;5.442;2022-10-16T11:29:01;101603.84;;;14.40;87.30
71966;BME280;59836;52.132;5.442;2022-10-16T11:32:05;101609.56;;;14.38;86.81
71966;BME280;59836;52.132;5.442;2022-10-16T11:34:57;101612.31;;;14.38;86.12
71966;BME280;59836;52.132;5.442;2022-10-16T11:37:41;101601.13;;;14.40;85.16
71966;BME280;59836;52.132;5.442;2022-10-16T11:40:45;101605.19;;;14.42;85.66
71966;BME280;59836;52.132;5.442;2022-10-16T11:43:28;101604.66;;;14.45;85.43
71966;BME280;59836;52.132;5.442;2022-10-16T11:45:59;101607.38;;;14.51;85.45
71966;BME280;59836;52.132;5.442;2022-10-16T11:48:45;101598.59;;;14.59;86.07
71966;BME280;59836;52.132;5.442;2022-10-16T11:51:24;101602.94;;;14.65;86.51
71966;BME280;59836;52.132;5.442;2022-10-16T11:57:13;101601.34;;;14.69;85.08
71966;BME280;59836;52.132;5.442;2022-10-16T11:59:51;101604.59;;;14.71;83.71
71966;BME280;59836;52.132;5.442;2022-10-16T12:08:18;101617.97;;;14.78;82.93
71966;BME280;59836;52.132;5.442;2022-10-16T12:11:19;101614.41;;;14.78;82.39
71966;BME280;59836;52.132;5.442;2022-10-16T12:13:49;101616.03;;;14.79;81.30
71966;BME280;59836;52.132;5.442;2022-10-16T12:16:23;101623.69;;;14.82;82.06
71966;BME280;59836;52.132;5.442;2022-10-16T12:19:24;101626.94;;;14.84;81.25
71966;BME280;59836;52.132;5.442;2022-10-16T12:22:15;101625.56;;;14.86;81.16
71966;BME280;59836;52.132;5.442;2022-10-16T12:30:41;101627.19;;;14.87;81.32
71966;BME280;59836;52.132;5.442;2022-10-16T12:33:40;101634.56;;;14.92;81.70
71966;BME280;59836;52.132;5.442;2022-10-16T12:36:27;101631.81;;;14.97;81.76
71966;BME280;59836;52.132;5.442;2022-10-16T12:38:58;101641.91;;;14.97;80.56
71966;BME280;59836;52.132;5.442;2022-10-16T12:41:28;101637.28;;;14.97;80.59
71966;BME280;59836;52.132;5.442;2022-10-16T12:43:56;101630.41;;;15.00;79.96
71966;BME280;59836;52.132;5.442;2022-10-16T12:46:34;101632.06;;;15.01;80.06
71966;BME280;59836;52.132;5.442;2022-10-16T12:49:21;101631.25;;;15.00;81.16
71966;BME280;59836;52.132;5.442;2022-10-16T12:51:51;101639.72;;;14.99;80.86
71966;BME280;59836;52.132;5.442;2022-10-16T12:54:21;101636.44;;;14.97;79.80
71966;BME280;59836;52.132;5.442;2022-10-16T13:11:58;101637.56;;;14.90;79.76
71966;BME280;59836;52.132;5.442;2022-10-16T13:21:06;101650.13;;;14.91;78.88
71966;BME280;59836;52.132;5.442;2022-10-16T13:24:09;101649.03;;;14.93;79.29
71966;BME280;59836;52.132;5.442;2022-10-16T13:29:22;101648.97;;;15.03;78.82
71966;BME280;59836;52.132;5.442;2022-10-16T13:31:49;101656.63;;;15.06;78.54
71966;BME280;59836;52.132;5.442;2022-10-16T13:34:20;101658.25;;;15.07;78.51
71966;BME280;59836;52.132;5.442;2022-10-16T13:36:53;101658.00;;;15.09;78.62
71966;BME280;59836;52.132;5.442;2022-10-16T13:39:23;101664.00;;;15.11;80.50
71966;BME280;59836;52.132;5.442;2022-10-16T13:44:39;101675.47;;;15.08;79.48
71966;BME280;59836;52.132;5.442;2022-10-16T13:47:28;101676.56;;;15.07;79.02
71966;BME280;59836;52.132;5.442;2022-10-16T13:52:28;101672.22;;;15.05;79.43
71966;BME280;59836;52.132;5.442;2022-10-16T13:54:55;101668.38;;;15.07;79.82
71966;BME280;59836;52.132;5.442;2022-10-16T13:57:27;101670.28;;;15.06;78.73
71966;BME280;59836;52.132;5.442;2022-10-16T14:00:05;101671.66;;;15.09;79.66
71966;BME280;59836;52.132;5.442;2022-10-16T14:05:58;101684.78;;;15.07;79.98
71966;BME280;59836;52.132;5.442;2022-10-16T14:08:46;101686.13;;;15.04;80.52
71966;BME280;59836;52.132;5.442;2022-10-16T14:11:29;101688.31;;;15.02;79.63
71966;BME280;59836;52.132;5.442;2022-10-16T14:13:57;101686.41;;;15.02;79.48
71966;BME280;59836;52.132;5.442;2022-10-16T14:16:44;101689.16;;;15.02;78.82
71966;BME280;59836;52.132;5.442;2022-10-16T14:19:22;101687.22;;;15.03;79.90
71966;BME280;59836;52.132;5.442;2022-10-16T14:21:55;101680.13;;;15.02;78.34
71966;BME280;59836;52.132;5.442;2022-10-16T14:31:38;101680.41;;;15.00;79.65
71966;BME280;59836;52.132;5.442;2022-10-16T14:34:30;101682.06;;;15.01;80.65
71966;BME280;59836;52.132;5.442;2022-10-16T14:37:16;101684.25;;;14.99;81.13
71966;BME280;59836;52.132;5.442;2022-10-16T14:39:54;101680.69;;;14.99;81.38
71966;BME280;59836;52.132;5.442;2022-10-16T14:42:24;101681.78;;;14.98;81.21
71966;BME280;59836;52.132;5.442;2022-10-16T14:44:56;101685.91;;;14.95;81.80
71966;BME280;59836;52.132;5.442;2022-10-16T14:47:26;101686.16;;;14.94;80.96
71966;BME280;59836;52.132;5.442;2022-10-16T14:49:54;101685.38;;;14.93;81.10
71966;BME280;59836;52.132;5.442;2022-10-16T14:52:27;101688.09;;;14.93;82.22
71966;BME280;59836;52.132;5.442;2022-10-16T14:54:58;101687.56;;;14.91;82.84
71966;BME280;59836;52.132;5.442;2022-10-16T14:57:27;101689.19;;;14.87;81.87
71966;BME280;59836;52.132;5.442;2022-10-16T15:00:16;101695.75;;;14.86;83.42
71966;BME280;59836;52.132;5.442;2022-10-16T15:02:55;101693.03;;;14.81;82.86
71966;BME280;59836;52.132;5.442;2022-10-16T15:05:26;101690.59;;;14.79;83.43
71966;BME280;59836;52.132;5.442;2022-10-16T15:07:56;101686.50;;;14.76;84.39
71966;BME280;59836;52.132;5.442;2022-10-16T15:10:25;101687.06;;;14.73;84.89
71966;BME280;59836;52.132;5.442;2022-10-16T15:12:52;101682.97;;;14.71;85.82
71966;BME280;59836;52.132;5.442;2022-10-16T15:18:46;101680.25;;;14.60;85.88
71966;BME280;59836;52.132;5.442;2022-10-16T15:21:25;101685.97;;;14.59;85.02
71966;BME280;59836;52.132;5.442;2022-10-16T15:23:53;101688.69;;;14.59;85.97
71966;BME280;59836;52.132;5.442;2022-10-16T15:26:28;101686.50;;;14.56;86.37
71966;BME280;59836;52.132;5.442;2022-10-16T15:28:54;101689.25;;;14.51;85.64
71966;BME280;59836;52.132;5.442;2022-10-16T15:31:21;101685.16;;;14.48;85.14